Time;durP1;ratioP1;P1;durP2;ratioP2;P2;SDS_P1;SDS_P2;PMS_P1;PMS_P2;Temp;Humidity;BMP_temperature;BMP_pressure;BME280_temperature;BME280_humidity;BME280_pressure;Samples;Min_cycle;Max_cycle;Signal;HPM_P1;HPM_P2
2021/08/08 00:01:41;;;;;;;8.20;4.20;;;;;21.78;99771.60;;;;94332;1201;93925;-62
2021/08/08 00:03:42;;;;;;;8.00;3.60;;;;;21.78;99775.80;;;;94622;1196;92494;-62
2021/08/08 00:05:44;;;;;;;7.50;3.40;;;;;21.78;99778.60;;;;94614;1200;96112;-62
2021/08/08 00:07:45;;;;;;;8.30;4.20;;;;;21.72;99780.40;;;;94598;1200;93424;-61
2021/08/08 00:09:47;;;;;;;7.30;3.70;;;;;21.70;99780.40;;;;94643;1201;92643;-61
2021/08/08 00:11:50;;;;;;;8.10;4.10;;;;;21.80;99782.40;;;;94568;1200;93311;-61
2021/08/08 00:13:51;;;;;;;7.70;3.70;;;;;21.80;99783.00;;;;94616;1201;92505;-63
2021/08/08 00:15:53;;;;;;;7.60;3.70;;;;;21.70;99783.40;;;;94659;1201;93352;-62
2021/08/08 00:17:55;;;;;;;7.00;3.20;;;;;21.80;99777.60;;;;94419;1201;93291;-63
2021/08/08 00:19:57;;;;;;;8.50;3.70;;;;;21.80;99778.20;;;;94679;1201;93525;-61
2021/08/08 00:21:58;;;;;;;9.00;3.70;;;;;21.80;99774.20;;;;94601;1201;92984;-53
2021/08/08 00:24:00;;;;;;;9.90;3.60;;;;;21.70;99769.80;;;;94620;1201;93491;-53
2021/08/08 00:26:01;;;;;;;7.50;3.50;;;;;21.70;99764.00;;;;94553;1192;92581;-61
2021/08/08 00:28:04;;;;;;;7.50;3.60;;;;;21.60;99763.80;;;;94552;1201;93300;-61
2021/08/08 00:30:07;;;;;;;8.30;3.40;;;;;21.60;99761.40;;;;94645;1201;92361;-60
2021/08/08 00:32:08;;;;;;;9.30;3.70;;;;;21.60;99753.60;;;;94552;1200;93204;-61
2021/08/08 00:34:10;;;;;;;8.70;3.50;;;;;21.58;99748.00;;;;94633;1201;93220;-61
2021/08/08 00:36:11;;;;;;;7.00;3.20;;;;;21.60;99746.00;;;;94646;1201;93299;-61
2021/08/08 00:38:13;;;;;;;8.70;3.60;;;;;21.70;99754.80;;;;94620;1193;92329;-61
2021/08/08 00:40:18;;;;;;;8.80;3.60;;;;;21.70;99750.20;;;;94625;1201;92516;-53
2021/08/08 00:42:20;;;;;;;9.00;3.70;;;;;21.70;99746.00;;;;94503;1193;92300;-52
2021/08/08 00:44:21;;;;;;;7.80;3.50;;;;;21.70;99740.20;;;;94633;1201;93315;-52
2021/08/08 00:46:23;;;;;;;8.20;4.10;;;;;21.64;99737.00;;;;94574;1200;92227;-53
2021/08/08 00:48:24;;;;;;;7.50;3.50;;;;;21.70;99742.80;;;;94625;1201;92603;-52
2021/08/08 00:50:26;;;;;;;11.90;3.50;;;;;21.62;99738.40;;;;94410;1201;92229;-52
2021/08/08 00:52:27;;;;;;;9.50;3.60;;;;;21.60;99732.60;;;;94568;1193;93165;-52
2021/08/08 00:54:29;;;;;;;10.50;3.90;;;;;21.60;99730.40;;;;94324;1194;92032;-53
2021/08/08 00:56:30;;;;;;;9.60;4.10;;;;;21.60;99727.00;;;;94631;1195;92313;-53
2021/08/08 00:58:32;;;;;;;7.90;3.60;;;;;21.50;99724.60;;;;94638;1201;93573;-53
2021/08/08 01:00:33;;;;;;;10.70;3.70;;;;;21.50;99726.00;;;;94608;1200;92242;-51
2021/08/08 01:02:37;;;;;;;8.20;3.80;;;;;21.56;99728.60;;;;94347;1193;92628;-52
2021/08/08 01:04:41;;;;;;;7.90;3.60;;;;;21.54;99721.80;;;;94671;1201;93508;-51
2021/08/08 01:06:51;;;;;;;9.50;3.70;;;;;21.50;99718.80;;;;94642;1201;93318;-53
2021/08/08 01:08:55;;;;;;;6.70;3.40;;;;;21.50;99725.40;;;;94682;1201;92839;-52
2021/08/08 01:10:58;;;;;;;10.80;4.10;;;;;21.50;99716.80;;;;94588;1201;92251;-61
2021/08/08 01:13:00;;;;;;;8.10;3.70;;;;;21.60;99719.00;;;;94668;1201;93441;-63
2021/08/08 01:15:02;;;;;;;8.10;3.30;;;;;21.54;99713.00;;;;94693;1193;92361;-54
2021/08/08 01:17:06;;;;;;;7.80;3.90;;;;;21.60;99716.40;;;;94503;1195;93223;-52
2021/08/08 01:19:09;;;;;;;8.40;3.90;;;;;21.56;99707.40;;;;94647;1201;93349;-53
2021/08/08 01:21:10;;;;;;;8.80;4.20;;;;;21.50;99703.60;;;;94709;1201;93487;-62
2021/08/08 01:23:13;;;;;;;8.10;4.10;;;;;21.50;99695.60;;;;94154;1201;93273;-62
2021/08/08 01:25:15;;;;;;;10.30;4.50;;;;;21.50;99691.20;;;;94432;1195;92536;-60
2021/08/08 01:27:16;;;;;;;7.10;3.70;;;;;21.50;99692.20;;;;94162;1201;92525;-61
2021/08/08 01:29:18;;;;;;;8.00;3.90;;;;;21.52;99688.20;;;;94637;1201;93335;-61
2021/08/08 01:31:20;;;;;;;9.40;3.80;;;;;21.50;99688.60;;;;94410;1201;92232;-53
2021/08/08 01:33:21;;;;;;;7.30;3.40;;;;;21.50;99687.40;;;;94687;1192;92257;-52
2021/08/08 01:35:23;;;;;;;8.00;3.60;;;;;21.50;99679.80;;;;94628;1201;93578;-52
2021/08/08 01:37:24;;;;;;;11.40;4.20;;;;;21.50;99677.20;;;;94644;1201;92677;-52
2021/08/08 01:39:26;;;;;;;8.40;4.10;;;;;21.50;99672.60;;;;94621;1200;92378;-52
2021/08/08 01:41:39;;;;;;;8.50;4.10;;;;;21.50;99672.80;;;;94338;1201;93308;-61
2021/08/08 01:43:43;;;;;;;8.50;4.30;;;;;21.50;99674.20;;;;94573;1201;93425;-61
2021/08/08 01:45:45;;;;;;;9.30;3.90;;;;;21.40;99676.00;;;;94649;1201;93472;-52
2021/08/08 01:47:49;;;;;;;8.50;3.70;;;;;21.40;99672.80;;;;94397;1193;92340;-53
2021/08/08 01:49:51;;;;;;;9.10;4.00;;;;;21.30;99668.80;;;;94642;1200;93682;-52
2021/08/08 01:51:53;;;;;;;11.90;4.60;;;;;21.32;99666.00;;;;94620;1201;93231;-63
2021/08/08 01:53:54;;;;;;;10.80;4.60;;;;;21.30;99668.00;;;;94333;1201;92509;-62
2021/08/08 01:55:56;;;;;;;9.90;4.30;;;;;21.32;99666.00;;;;94525;1201;93517;-54
2021/08/08 01:57:58;;;;;;;9.40;4.20;;;;;21.40;99662.60;;;;94560;1201;92490;-52
2021/08/08 02:00:02;;;;;;;8.80;3.70;;;;;21.40;99664.20;;;;94612;1193;92296;-54
2021/08/08 02:02:09;;;;;;;10.00;4.10;;;;;21.30;99657.80;;;;94442;1200;93400;-62
2021/08/08 02:04:18;;;;;;;11.70;4.70;;;;;21.30;99655.00;;;;94557;1201;93148;-62
2021/08/08 02:06:19;;;;;;;7.90;4.40;;;;;21.24;99662.00;;;;94610;1193;92504;-53
2021/08/08 02:08:21;;;;;;;10.50;4.60;;;;;21.20;99663.60;;;;94606;1192;92495;-53
2021/08/08 02:10:22;;;;;;;9.70;5.20;;;;;21.30;99658.80;;;;94588;1193;92427;-53
2021/08/08 02:12:25;;;;;;;7.70;3.70;;;;;21.26;99655.40;;;;94575;1201;93039;-53
2021/08/08 02:14:26;;;;;;;7.80;3.90;;;;;21.18;99655.80;;;;94581;1201;92497;-53
2021/08/08 02:16:27;;;;;;;7.80;4.20;;;;;21.20;99649.40;;;;94536;1201;93431;-61
2021/08/08 02:18:29;;;;;;;9.60;4.70;;;;;21.12;99645.40;;;;94577;1201;92355;-62
2021/08/08 02:20:30;;;;;;;9.40;4.40;;;;;21.10;99635.60;;;;94564;1200;93927;-54
2021/08/08 02:22:32;;;;;;;9.60;4.40;;;;;21.10;99629.40;;;;94647;1201;93312;-54
2021/08/08 02:24:33;;;;;;;8.30;4.30;;;;;21.10;99620.00;;;;94592;1200;93443;-54
2021/08/08 02:26:35;;;;;;;9.10;4.80;;;;;21.10;99622.00;;;;94531;1201;92268;-53
2021/08/08 02:28:36;;;;;;;9.70;4.50;;;;;20.92;99619.00;;;;94325;1201;93279;-53
2021/08/08 02:30:37;;;;;;;12.00;4.10;;;;;20.80;99619.20;;;;94527;1201;92564;-63
2021/08/08 02:32:39;;;;;;;8.80;4.40;;;;;20.92;99606.20;;;;94560;1200;93442;-61
2021/08/08 02:34:41;;;;;;;9.30;4.90;;;;;21.00;99600.00;;;;94579;1201;92450;-63
2021/08/08 02:36:42;;;;;;;8.30;4.30;;;;;20.90;99603.00;;;;94564;1201;93802;-62
2021/08/08 02:38:44;;;;;;;8.60;4.60;;;;;20.90;99600.40;;;;94637;1201;93391;-62
2021/08/08 02:40:46;;;;;;;8.50;4.00;;;;;20.90;99608.60;;;;94641;1201;93246;-62
2021/08/08 02:42:47;;;;;;;9.60;3.90;;;;;20.90;99612.60;;;;94611;1193;92435;-62
2021/08/08 02:44:49;;;;;;;8.70;4.60;;;;;20.80;99609.40;;;;94629;1201;93151;-62
2021/08/08 02:46:50;;;;;;;9.10;4.50;;;;;20.90;99611.80;;;;94611;1201;92406;-52
2021/08/08 02:48:52;;;;;;;8.50;4.40;;;;;20.90;99610.80;;;;94599;1201;92655;-52
2021/08/08 02:50:53;;;;;;;9.20;4.30;;;;;20.80;99603.40;;;;94607;1201;93279;-62
2021/08/08 02:52:55;;;;;;;10.20;4.10;;;;;20.82;99600.60;;;;94615;1201;93368;-62
2021/08/08 02:54:56;;;;;;;8.80;4.40;;;;;20.80;99605.20;;;;94618;1201;93327;-61
2021/08/08 02:56:57;;;;;;;11.50;4.40;;;;;20.70;99595.60;;;;94581;1201;92604;-53
2021/08/08 02:58:59;;;;;;;9.70;4.20;;;;;20.80;99595.60;;;;94671;1201;93694;-53
2021/08/08 03:01:00;;;;;;;7.40;3.90;;;;;20.70;99593.20;;;;94539;1201;93339;-53
2021/08/08 03:03:02;;;;;;;10.00;3.70;;;;;20.78;99605.00;;;;94613;1201;92484;-52
2021/08/08 03:05:04;;;;;;;8.60;4.50;;;;;20.72;99596.60;;;;94637;1201;93486;-52
2021/08/08 03:07:05;;;;;;;13.00;4.80;;;;;20.70;99599.80;;;;94540;1201;93430;-53
2021/08/08 03:09:07;;;;;;;10.70;4.30;;;;;20.70;99601.40;;;;94655;1201;92468;-53
2021/08/08 03:11:09;;;;;;;11.00;4.70;;;;;20.80;99598.20;;;;94538;1201;93315;-61
2021/08/08 03:13:11;;;;;;;9.60;4.20;;;;;20.80;99596.20;;;;94666;1201;93253;-61
2021/08/08 03:15:12;;;;;;;8.80;4.50;;;;;20.70;99590.40;;;;94669;1201;92497;-60
2021/08/08 03:17:14;;;;;;;9.10;4.00;;;;;20.70;99595.40;;;;94633;1201;93440;-61
2021/08/08 03:19:15;;;;;;;10.10;4.40;;;;;20.60;99597.60;;;;94654;1201;92282;-62
2021/08/08 03:21:17;;;;;;;12.30;4.20;;;;;20.60;99597.60;;;;94557;1200;93463;-52
2021/08/08 03:23:18;;;;;;;8.90;4.10;;;;;20.62;99594.80;;;;94606;1201;93427;-53
2021/08/08 03:25:20;;;;;;;7.80;4.00;;;;;20.70;99591.20;;;;94644;1201;93236;-54
2021/08/08 03:27:21;;;;;;;7.50;3.80;;;;;20.70;99580.60;;;;94606;1201;93233;-54
2021/08/08 03:29:23;;;;;;;12.00;4.30;;;;;20.68;99578.60;;;;94637;1201;93447;-52
2021/08/08 03:31:24;;;;;;;9.80;4.00;;;;;20.58;99577.80;;;;94588;1201;92259;-61
2021/08/08 03:33:26;;;;;;;8.60;4.00;;;;;20.60;99575.20;;;;94616;1201;93175;-62
2021/08/08 03:35:28;;;;;;;7.50;3.40;;;;;20.64;99572.00;;;;94624;1192;92772;-60
2021/08/08 03:37:29;;;;;;;8.80;4.10;;;;;20.64;99575.80;;;;94616;1201;93460;-61
2021/08/08 03:39:30;;;;;;;8.60;3.80;;;;;20.60;99576.80;;;;94648;1201;93447;-60
2021/08/08 03:41:32;;;;;;;10.40;3.90;;;;;20.70;99572.00;;;;94590;1201;93415;-52
2021/08/08 03:43:33;;;;;;;9.40;4.30;;;;;20.66;99581.00;;;;94589;1201;93126;-52
2021/08/08 03:45:35;;;;;;;10.00;3.60;;;;;20.70;99575.60;;;;94608;1201;93516;-52
2021/08/08 03:47:36;;;;;;;10.90;4.30;;;;;20.70;99578.20;;;;94632;1201;93251;-52
2021/08/08 03:49:38;;;;;;;7.80;3.80;;;;;20.64;99572.80;;;;94568;1201;93268;-53
2021/08/08 03:51:40;;;;;;;8.00;4.00;;;;;20.70;99566.40;;;;94543;1200;92287;-63
2021/08/08 03:53:41;;;;;;;9.90;4.00;;;;;20.60;99570.60;;;;94627;1201;93274;-62
2021/08/08 03:55:43;;;;;;;8.30;4.00;;;;;20.70;99563.00;;;;94628;1201;93290;-60
2021/08/08 03:57:44;;;;;;;8.20;3.90;;;;;20.60;99557.20;;;;94587;1201;92533;-61
2021/08/08 03:59:45;;;;;;;10.30;4.00;;;;;20.70;99555.80;;;;94623;1201;92424;-64
2021/08/08 04:01:47;;;;;;;9.40;4.00;;;;;20.60;99555.00;;;;94527;1201;93248;-54
2021/08/08 04:03:48;;;;;;;7.60;3.70;;;;;20.50;99563.20;;;;94545;1201;93281;-54
2021/08/08 04:05:50;;;;;;;8.80;3.90;;;;;20.64;99560.00;;;;94524;1200;93377;-61
2021/08/08 04:07:51;;;;;;;9.20;3.20;;;;;20.74;99563.20;;;;94552;1201;92358;-62
2021/08/08 04:09:53;;;;;;;8.40;4.00;;;;;20.80;99551.20;;;;94601;1201;92624;-63
2021/08/08 04:11:54;;;;;;;9.90;3.70;;;;;20.80;99547.20;;;;94626;1201;92564;-61
2021/08/08 04:13:56;;;;;;;8.00;3.80;;;;;20.76;99546.80;;;;94619;1201;93254;-62
2021/08/08 04:15:57;;;;;;;6.80;3.50;;;;;20.70;99549.20;;;;94627;1201;93302;-54
2021/08/08 04:17:58;;;;;;;11.30;3.70;;;;;20.80;99557.40;;;;94666;1201;92504;-53
2021/08/08 04:20:00;;;;;;;11.80;3.50;;;;;20.70;99572.00;;;;94596;1200;93443;-56
2021/08/08 04:22:02;;;;;;;10.40;4.00;;;;;20.70;99574.20;;;;94601;1201;92722;-60
2021/08/08 04:24:04;;;;;;;12.10;4.00;;;;;20.80;99580.00;;;;94424;1196;92629;-61
2021/08/08 04:26:06;;;;;;;7.30;3.50;;;;;20.84;99590.20;;;;94604;1193;92054;-60
2021/08/08 04:28:07;;;;;;;8.60;3.60;;;;;20.90;99596.60;;;;94634;1201;92405;-60
2021/08/08 04:30:10;;;;;;;7.90;3.50;;;;;21.00;99595.40;;;;94667;1194;92333;-52
2021/08/08 04:32:11;;;;;;;7.90;3.60;;;;;20.94;99610.60;;;;94583;1201;92167;-52
2021/08/08 04:34:13;;;;;;;9.60;3.60;;;;;20.96;99617.00;;;;94622;1201;93478;-52
2021/08/08 04:36:14;;;;;;;6.90;2.80;;;;;21.00;99628.60;;;;94544;1201;93321;-60
2021/08/08 04:38:16;;;;;;;10.00;3.50;;;;;21.02;99623.80;;;;94546;1201;92288;-60
2021/08/08 04:40:17;;;;;;;7.60;3.60;;;;;21.08;99622.00;;;;94619;1201;93893;-53
2021/08/08 04:42:18;;;;;;;7.50;3.20;;;;;21.04;99623.40;;;;94547;1201;93243;-53
2021/08/08 04:44:20;;;;;;;7.60;3.40;;;;;21.16;99615.60;;;;94627;1200;93135;-52
2021/08/08 04:46:22;;;;;;;7.30;3.40;;;;;21.20;99612.80;;;;94600;1193;92483;-60
2021/08/08 04:48:24;;;;;;;7.40;3.30;;;;;21.20;99602.80;;;;94628;1201;92412;-60
2021/08/08 04:50:25;;;;;;;8.70;3.40;;;;;21.20;99609.60;;;;94599;1201;92487;-60
2021/08/08 04:52:34;;;;;;;8.50;3.80;;;;;21.30;99620.60;;;;94644;1201;93237;-61
2021/08/08 04:54:35;;;;;;;9.40;3.70;;;;;21.30;99619.60;;;;94643;1201;93211;-60
2021/08/08 04:56:37;;;;;;;9.90;4.00;;;;;21.34;99639.00;;;;94523;1200;93456;-52
2021/08/08 04:58:38;;;;;;;6.80;3.30;;;;;21.30;99669.40;;;;94588;1201;93511;-53
2021/08/08 05:00:40;;;;;;;7.50;3.10;;;;;21.40;99668.00;;;;94587;1192;92521;-60
2021/08/08 05:02:45;;;;;;;8.50;3.50;;;;;21.40;99691.00;;;;94611;1201;93434;-61
2021/08/08 05:04:47;;;;;;;6.90;3.20;;;;;21.44;99679.40;;;;94607;1201;92369;-61
2021/08/08 05:06:48;;;;;;;8.40;3.50;;;;;21.50;99683.80;;;;94583;1201;93232;-54
2021/08/08 05:08:49;;;;;;;7.40;3.30;;;;;21.50;99672.40;;;;94614;1201;92290;-54
2021/08/08 05:10:51;;;;;;;9.40;3.50;;;;;21.50;99663.60;;;;94633;1194;92500;-52
2021/08/08 05:12:53;;;;;;;8.90;3.50;;;;;21.50;99665.60;;;;94624;1201;93353;-53
2021/08/08 05:14:54;;;;;;;7.40;3.10;;;;;21.50;99654.60;;;;94615;1201;92133;-52
2021/08/08 05:16:55;;;;;;;8.10;3.60;;;;;21.50;99641.20;;;;94640;1192;92262;-53
2021/08/08 05:18:57;;;;;;;7.20;3.40;;;;;21.50;99645.20;;;;94633;1201;93247;-52
2021/08/08 05:20:58;;;;;;;8.60;3.50;;;;;21.50;99642.80;;;;94615;1201;92502;-59
2021/08/08 05:23:00;;;;;;;7.80;3.40;;;;;21.50;99635.20;;;;94654;1201;93440;-60
2021/08/08 05:25:02;;;;;;;8.30;3.50;;;;;21.50;99631.40;;;;94613;1193;92371;-59
2021/08/08 05:27:04;;;;;;;7.00;3.20;;;;;21.54;99624.20;;;;94646;1193;92949;-61
2021/08/08 05:29:05;;;;;;;8.10;3.20;;;;;21.60;99624.00;;;;94628;1193;92321;-60
2021/08/08 05:31:07;;;;;;;7.20;3.30;;;;;21.60;99625.80;;;;94586;1202;93475;-61
2021/08/08 05:33:08;;;;;;;9.30;3.60;;;;;21.60;99644.20;;;;94657;1201;92579;-61
2021/08/08 05:35:10;;;;;;;7.00;3.20;;;;;21.60;99647.60;;;;94629;1201;93250;-54
2021/08/08 05:37:12;;;;;;;7.60;3.40;;;;;21.62;99643.80;;;;94549;1201;93446;-52
2021/08/08 05:39:14;;;;;;;9.60;3.70;;;;;21.60;99641.40;;;;94622;1201;92793;-53
2021/08/08 05:41:15;;;;;;;8.00;3.30;;;;;21.60;99639.60;;;;94631;1201;93416;-54
2021/08/08 05:43:18;;;;;;;9.70;3.60;;;;;21.60;99642.60;;;;94616;1202;93427;-53
2021/08/08 05:45:21;;;;;;;7.50;3.40;;;;;21.64;99640.40;;;;94634;1194;92354;-54
2021/08/08 05:47:22;;;;;;;7.50;3.30;;;;;21.60;99642.00;;;;94592;1201;92507;-53
2021/08/08 05:49:23;;;;;;;6.90;3.20;;;;;21.66;99635.20;;;;94635;1200;93535;-53
2021/08/08 05:51:25;;;;;;;6.70;3.00;;;;;21.70;99632.20;;;;94603;1193;92306;-60
2021/08/08 05:53:26;;;;;;;7.50;3.00;;;;;21.70;99632.00;;;;94601;1195;92504;-61
2021/08/08 05:55:28;;;;;;;6.70;3.10;;;;;21.70;99639.20;;;;94617;1202;93427;-60
2021/08/08 05:57:29;;;;;;;8.70;3.50;;;;;21.70;99637.60;;;;94623;1201;93372;-61
2021/08/08 05:59:31;;;;;;;6.90;2.90;;;;;21.70;99643.20;;;;94596;1201;93826;-60
2021/08/08 06:01:32;;;;;;;7.90;3.60;;;;;21.70;99645.60;;;;94621;1201;93231;-54
2021/08/08 06:03:34;;;;;;;10.00;3.60;;;;;21.70;99645.40;;;;94639;1201;93010;-53
2021/08/08 06:05:35;;;;;;;7.60;3.60;;;;;21.70;99641.40;;;;94615;1201;93225;-53
2021/08/08 06:07:37;;;;;;;8.50;3.20;;;;;21.70;99641.40;;;;94679;1193;92008;-52
2021/08/08 06:09:38;;;;;;;7.70;3.60;;;;;21.70;99643.80;;;;94591;1201;92099;-53
2021/08/08 06:11:39;;;;;;;8.50;3.30;;;;;21.70;99644.40;;;;94512;1196;92239;-60
2021/08/08 06:13:41;;;;;;;8.40;3.40;;;;;21.72;99646.60;;;;94623;1202;93423;-59
2021/08/08 06:15:42;;;;;;;8.90;3.70;;;;;21.80;99649.60;;;;94643;1201;92445;-53
2021/08/08 06:17:44;;;;;;;7.30;3.40;;;;;21.80;99647.80;;;;94634;1196;92087;-52
2021/08/08 06:19:45;;;;;;;7.20;3.30;;;;;21.80;99652.00;;;;94620;1201;93793;-53
2021/08/08 06:21:47;;;;;;;7.70;3.30;;;;;21.80;99648.80;;;;94594;1201;93558;-60
2021/08/08 06:23:48;;;;;;;6.90;3.30;;;;;21.80;99647.20;;;;94618;1201;92284;-60
2021/08/08 06:25:51;;;;;;;6.40;3.10;;;;;21.80;99651.40;;;;94556;1193;92297;-52
2021/08/08 06:27:52;;;;;;;7.40;3.40;;;;;21.80;99655.80;;;;94577;1200;93272;-52
2021/08/08 06:29:53;;;;;;;8.30;3.50;;;;;21.80;99662.60;;;;94413;1193;92532;-52
2021/08/08 06:31:55;;;;;;;7.30;3.70;;;;;21.80;99664.00;;;;94577;1200;93462;-60
2021/08/08 06:33:56;;;;;;;8.20;3.50;;;;;21.90;99665.00;;;;94638;1200;93317;-61
2021/08/08 06:35:58;;;;;;;9.30;3.40;;;;;21.90;99669.40;;;;94643;1201;92742;-60
2021/08/08 06:37:59;;;;;;;7.70;3.30;;;;;21.90;99670.00;;;;94606;1201;93264;-62
2021/08/08 06:40:01;;;;;;;6.40;3.30;;;;;21.90;99672.60;;;;94634;1202;93546;-55
2021/08/08 06:42:03;;;;;;;7.00;3.20;;;;;21.90;99674.40;;;;94624;1201;93267;-53
2021/08/08 06:44:04;;;;;;;6.50;2.90;;;;;21.96;99679.20;;;;94614;1201;93456;-53
2021/08/08 06:46:06;;;;;;;7.20;3.20;;;;;22.00;99688.60;;;;94493;1201;93402;-61
2021/08/08 06:48:07;;;;;;;7.40;3.40;;;;;22.00;99685.40;;;;94584;1201;93441;-59
2021/08/08 06:50:09;;;;;;;7.80;3.20;;;;;22.00;99682.40;;;;94598;1194;92511;-59
2021/08/08 06:52:10;;;;;;;7.20;3.10;;;;;22.00;99685.40;;;;94536;1201;93373;-61
2021/08/08 06:54:14;;;;;;;6.70;3.20;;;;;22.00;99691.20;;;;94369;1195;92280;-61
2021/08/08 06:56:16;;;;;;;8.30;3.30;;;;;22.00;99700.60;;;;94616;1201;93278;-62
2021/08/08 07:01:19;;;;;;;7.60;3.10;;;;;22.00;99714.20;;;;94564;1201;93662;-53
2021/08/08 07:03:20;;;;;;;6.70;3.30;;;;;22.00;99719.40;;;;94635;1200;92576;-51
2021/08/08 07:05:21;;;;;;;6.40;3.00;;;;;22.00;99721.80;;;;94593;1201;93308;-61
2021/08/08 07:07:23;;;;;;;7.50;3.00;;;;;22.00;99724.80;;;;94609;1201;93309;-60
2021/08/08 07:09:24;;;;;;;8.90;3.30;;;;;22.00;99732.80;;;;94637;1193;92517;-61
2021/08/08 07:11:26;;;;;;;6.40;3.10;;;;;22.00;99728.00;;;;94361;1201;93420;-52
2021/08/08 07:13:27;;;;;;;8.80;3.60;;;;;22.00;99734.20;;;;94407;1193;92333;-52
2021/08/08 07:15:29;;;;;;;8.10;3.20;;;;;22.00;99737.80;;;;94376;1201;93439;-60
2021/08/08 07:17:30;;;;;;;6.80;2.90;;;;;22.00;99741.40;;;;94367;1195;92380;-60
2021/08/08 07:19:32;;;;;;;6.60;3.10;;;;;22.04;99742.40;;;;94414;1201;93491;-60
2021/08/08 07:21:33;;;;;;;7.90;2.90;;;;;22.04;99751.20;;;;94390;1201;92013;-60
2021/08/08 07:23:35;;;;;;;7.90;3.20;;;;;22.10;99752.40;;;;94383;1195;93724;-61
2021/08/08 07:25:36;;;;;;;6.20;3.00;;;;;22.06;99755.60;;;;94377;1201;93478;-60
2021/08/08 07:27:38;;;;;;;7.20;3.20;;;;;22.10;99764.60;;;;94389;1193;92371;-61
2021/08/08 07:29:39;;;;;;;7.20;3.20;;;;;22.10;99775.60;;;;94397;1202;92730;-60
2021/08/08 07:31:41;;;;;;;5.90;2.60;;;;;22.10;99779.40;;;;94270;1201;93898;-52
2021/08/08 07:33:42;;;;;;;6.70;3.40;;;;;22.10;99779.80;;;;94363;1201;92540;-53
2021/08/08 07:35:44;;;;;;;7.00;3.00;;;;;22.10;99781.00;;;;94361;1194;92316;-52
2021/08/08 07:37:46;;;;;;;8.80;3.10;;;;;22.10;99788.80;;;;94395;1201;91985;-52
2021/08/08 07:39:48;;;;;;;7.20;3.00;;;;;22.10;99792.60;;;;94386;1201;93186;-53
2021/08/08 07:41:51;;;;;;;6.20;2.80;;;;;22.10;99793.40;;;;94393;1200;92235;-52
2021/08/08 07:43:52;;;;;;;7.90;3.10;;;;;22.10;99795.20;;;;94357;1201;93252;-51
2021/08/08 07:45:54;;;;;;;7.20;3.00;;;;;22.10;99798.20;;;;94368;1201;93212;-61
2021/08/08 07:47:55;;;;;;;7.50;2.90;;;;;22.10;99801.40;;;;94425;1201;92259;-60
2021/08/08 07:49:56;;;;;;;8.80;3.40;;;;;22.10;99808.80;;;;94429;1193;92383;-62
2021/08/08 07:51:58;;;;;;;8.20;3.10;;;;;22.10;99815.60;;;;94443;1193;92336;-52
2021/08/08 07:53:59;;;;;;;6.40;2.90;;;;;22.10;99812.60;;;;94432;1201;92494;-52
2021/08/08 07:56:01;;;;;;;8.20;3.30;;;;;22.10;99822.40;;;;94368;1195;92660;-53
2021/08/08 07:58:02;;;;;;;7.50;3.50;;;;;22.10;99833.40;;;;94431;1200;92927;-53
2021/08/08 08:00:05;;;;;;;7.30;3.30;;;;;22.10;99836.20;;;;94396;1201;93221;-52
2021/08/08 08:02:06;;;;;;;6.50;3.10;;;;;22.10;99840.40;;;;94392;1201;93217;-52
2021/08/08 08:04:08;;;;;;;9.10;3.50;;;;;22.10;99846.60;;;;94407;1193;92529;-52
2021/08/08 08:06:10;;;;;;;7.70;3.80;;;;;22.10;99852.40;;;;94438;1192;92292;-52
2021/08/08 08:08:11;;;;;;;8.00;3.60;;;;;22.10;99856.20;;;;94450;1201;93440;-54
2021/08/08 08:10:13;;;;;;;8.00;3.80;;;;;22.10;99866.20;;;;94535;1194;92523;-59
2021/08/08 08:12:14;;;;;;;8.80;4.20;;;;;22.10;99868.80;;;;94526;1201;93154;-61
2021/08/08 08:14:16;;;;;;;8.90;3.20;;;;;22.10;99868.00;;;;94584;1201;93279;-61
2021/08/08 08:16:18;;;;;;;7.40;3.90;;;;;22.10;99873.20;;;;94615;1200;92996;-67
2021/08/08 08:18:19;;;;;;;8.50;3.90;;;;;22.10;99888.20;;;;94659;1202;93445;-62
2021/08/08 08:20:21;;;;;;;7.90;3.80;;;;;22.10;99879.80;;;;94553;1200;92506;-62
2021/08/08 08:22:22;;;;;;;7.60;3.90;;;;;22.10;99884.20;;;;94511;1202;93279;-62
2021/08/08 08:24:23;;;;;;;7.20;3.90;;;;;22.10;99879.40;;;;94558;1201;92610;-61
2021/08/08 08:26:25;;;;;;;7.30;3.60;;;;;22.20;99887.40;;;;94129;1196;93431;-54
2021/08/08 08:28:29;;;;;;;7.10;3.80;;;;;22.20;99888.80;;;;94612;1201;92503;-57
2021/08/08 08:30:31;;;;;;;8.00;3.60;;;;;22.16;99893.20;;;;94618;1201;92634;-62
2021/08/08 08:32:32;;;;;;;8.30;4.10;;;;;22.12;99895.00;;;;94537;1201;92919;-64
2021/08/08 08:34:34;;;;;;;8.50;3.90;;;;;22.16;99899.00;;;;94484;1195;92340;-62
2021/08/08 08:36:35;;;;;;;7.90;3.60;;;;;22.20;99902.60;;;;94592;1202;92542;-61
2021/08/08 08:38:37;;;;;;;6.50;3.50;;;;;22.14;99903.40;;;;94430;1201;93807;-60
2021/08/08 08:40:38;;;;;;;7.20;3.90;;;;;22.16;99905.20;;;;94608;1201;92357;-52
2021/08/08 08:42:45;;;;;;;8.50;4.20;;;;;22.10;99914.00;;;;94182;1202;93397;-52
2021/08/08 08:44:47;;;;;;;7.40;3.70;;;;;22.10;99920.80;;;;94628;1192;92503;-53
2021/08/08 08:46:48;;;;;;;7.40;4.10;;;;;22.10;99924.40;;;;94360;1194;92332;-52
2021/08/08 08:48:52;;;;;;;7.80;4.00;;;;;22.10;99928.60;;;;94582;1193;92540;-53
2021/08/08 08:50:54;;;;;;;8.50;3.80;;;;;22.10;99936.00;;;;94653;1200;93220;-53
2021/08/08 08:52:55;;;;;;;7.30;3.80;;;;;22.12;99935.80;;;;94449;1201;92377;-53
2021/08/08 08:54:57;;;;;;;7.70;3.90;;;;;22.16;99929.40;;;;94174;1195;93437;-52
2021/08/08 08:56:58;;;;;;;7.10;3.60;;;;;22.20;99927.60;;;;94518;1202;93381;-61
2021/08/08 08:59:00;;;;;;;6.70;3.50;;;;;22.20;99938.20;;;;94568;1201;93431;-60
2021/08/08 09:01:02;;;;;;;7.40;3.90;;;;;22.20;99936.80;;;;94537;1201;93466;-60
2021/08/08 09:03:03;;;;;;;7.50;3.80;;;;;22.20;99939.60;;;;94612;1201;92495;-60
2021/08/08 09:05:05;;;;;;;6.90;3.80;;;;;22.20;99941.20;;;;94593;1201;93809;-59
2021/08/08 09:07:07;;;;;;;8.00;3.40;;;;;22.20;99943.40;;;;94625;1201;92522;-60
2021/08/08 09:09:08;;;;;;;6.80;3.30;;;;;22.20;99944.80;;;;94588;1202;93899;-60
2021/08/08 09:11:10;;;;;;;7.20;3.70;;;;;22.20;99950.00;;;;94572;1202;93477;-53
2021/08/08 09:13:12;;;;;;;6.30;2.90;;;;;22.20;99960.00;;;;94586;1194;92532;-54
2021/08/08 09:15:13;;;;;;;7.50;3.40;;;;;22.20;99977.00;;;;94630;1201;93437;-53
2021/08/08 09:17:14;;;;;;;7.60;2.80;;;;;22.20;99975.00;;;;94584;1202;92497;-53
2021/08/08 09:19:20;;;;;;;6.30;3.00;;;;;22.22;99976.20;;;;94615;1201;92313;-54
2021/08/08 09:21:22;;;;;;;6.10;2.80;;;;;22.30;99997.60;;;;94647;1193;92262;-53
2021/08/08 09:23:33;;;;;;;5.80;2.90;;;;;22.30;99996.20;;;;94578;1193;92317;-52
2021/08/08 09:25:34;;;;;;;5.80;2.50;;;;;22.30;100005.60;;;;94635;1201;93167;-53
2021/08/08 09:27:37;;;;;;;7.70;2.80;;;;;22.30;100007.00;;;;94432;1193;92650;-53
2021/08/08 09:29:41;;;;;;;5.90;2.90;;;;;22.30;99999.00;;;;94640;1193;92093;-54
2021/08/08 09:31:45;;;;;;;4.70;2.20;;;;;22.30;100002.60;;;;94524;1202;92461;-60
2021/08/08 09:33:46;;;;;;;6.30;2.30;;;;;22.30;100008.80;;;;94514;1192;92259;-60
2021/08/08 09:35:55;;;;;;;5.10;2.50;;;;;22.30;100010.20;;;;94551;1200;93212;-60
2021/08/08 09:38:00;;;;;;;5.10;2.80;;;;;22.30;100010.00;;;;94638;1201;92464;-62
2021/08/08 09:40:11;;;;;;;5.40;2.20;;;;;22.30;100014.20;;;;94611;1201;93663;-58
2021/08/08 09:42:16;;;;;;;5.90;2.60;;;;;22.30;100016.00;;;;94573;1201;93422;-52
2021/08/08 09:44:18;;;;;;;5.90;2.30;;;;;22.30;100021.00;;;;94198;1201;92285;-53
2021/08/08 09:46:19;;;;;;;5.50;1.90;;;;;22.30;100028.40;;;;94560;1202;92486;-52
2021/08/08 09:48:21;;;;;;;4.60;1.90;;;;;22.30;100041.40;;;;94595;1201;92341;-53
2021/08/08 09:50:23;;;;;;;3.60;1.50;;;;;22.30;100053.20;;;;94419;1202;93420;-52
2021/08/08 09:52:26;;;;;;;3.80;1.60;;;;;22.30;100060.00;;;;94573;1193;92529;-52
2021/08/08 09:54:35;;;;;;;4.20;1.60;;;;;22.32;100059.80;;;;94618;1192;92517;-54
2021/08/08 09:56:36;;;;;;;3.90;1.60;;;;;22.30;100068.20;;;;94628;1193;92507;-53
2021/08/08 09:58:39;;;;;;;3.50;1.70;;;;;22.30;100070.40;;;;94580;1201;93388;-54
2021/08/08 10:00:41;;;;;;;3.50;1.40;;;;;22.30;100079.40;;;;94382;1201;93248;-60
2021/08/08 10:02:42;;;;;;;4.80;1.50;;;;;22.30;100083.60;;;;94550;1201;92703;-61
2021/08/08 10:04:44;;;;;;;2.80;1.40;;;;;22.30;100081.80;;;;94519;1201;93375;-62
2021/08/08 10:06:45;;;;;;;3.40;1.50;;;;;22.30;100086.00;;;;94594;1201;92176;-53
2021/08/08 10:08:47;;;;;;;2.80;1.30;;;;;22.30;100082.60;;;;94666;1201;92498;-54
2021/08/08 10:10:52;;;;;;;5.50;1.80;;;;;22.30;100090.60;;;;94351;1202;92831;-59
2021/08/08 10:12:56;;;;;;;5.00;1.80;;;;;22.30;100084.00;;;;94620;1193;92773;-62